sensor_id;sensor_type;location;lat;lon;timestamp;pressure;altitude;pressure_sealevel;temperature;humidity
49947;BME280;35839;48.662;13.300;2023-03-15T05:40:15;97036.06;;;3.56;100.00
49947;BME280;35839;48.662;13.300;2023-03-15T05:42:40;97054.28;;;3.43;100.00
49947;BME280;35839;48.662;13.300;2023-03-15T05:45:06;97054.78;;;3.13;100.00
49947;BME280;35839;48.662;13.300;2023-03-15T05:47:31;97065.28;;;2.74;100.00
49947;BME280;35839;48.662;13.300;2023-03-15T05:49:56;97069.94;;;2.93;100.00
49947;BME280;35839;48.662;13.300;2023-03-15T05:52:22;97056.03;;;3.07;100.00
49947;BME280;35839;48.662;13.300;2023-03-15T05:54:48;97061.94;;;2.85;100.00
49947;BME280;35839;48.662;13.300;2023-03-15T05:57:14;97062.72;;;2.99;100.00
49947;BME280;35839;48.662;13.300;2023-03-15T05:59:39;97058.75;;;3.06;100.00
49947;BME280;35839;48.662;13.300;2023-03-15T06:02:05;97053.19;;;3.34;100.00
49947;BME280;35839;48.662;13.300;2023-03-15T06:04:30;97064.63;;;3.43;100.00
49947;BME280;35839;48.662;13.300;2023-03-15T06:06:56;97072.47;;;3.30;100.00
49947;BME280;35839;48.662;13.300;2023-03-15T06:09:21;97094.91;;;2.58;100.00
49947;BME280;35839;48.662;13.300;2023-03-15T06:11:46;97101.59;;;2.73;100.00
49947;BME280;35839;48.662;13.300;2023-03-15T06:14:12;97106.88;;;2.95;100.00
49947;BME280;35839;48.662;13.300;2023-03-15T06:16:37;97106.06;;;2.71;100.00
49947;BME280;35839;48.662;13.300;2023-03-15T06:19:02;97123.84;;;3.00;100.00
49947;BME280;35839;48.662;13.300;2023-03-15T06:21:28;97123.56;;;2.91;100.00
49947;BME280;35839;48.662;13.300;2023-03-15T06:23:53;97133.25;;;3.01;100.00
49947;BME280;35839;48.662;13.300;2023-03-15T06:26:19;97140.50;;;2.59;100.00
49947;BME280;35839;48.662;13.300;2023-03-15T06:28:44;97154.72;;;2.40;100.00
49947;BME280;35839;48.662;13.300;2023-03-15T06:31:11;97157.16;;;2.42;100.00
49947;BME280;35839;48.662;13.300;2023-03-15T06:33:37;97168.03;;;2.21;100.00
49947;BME280;35839;48.662;13.300;2023-03-15T06:36:03;97165.66;;;2.31;100.00
49947;BME280;35839;48.662;13.300;2023-03-15T06:38:28;97179.00;;;2.25;100.00
49947;BME280;35839;48.662;13.300;2023-03-15T06:40:56;97171.94;;;2.52;100.00
49947;BME280;35839;48.662;13.300;2023-03-15T06:43:23;97185.50;;;2.43;100.00
49947;BME280;35839;48.662;13.300;2023-03-15T06:45:48;97179.75;;;2.89;100.00
49947;BME280;35839;48.662;13.300;2023-03-15T06:48:14;97186.06;;;2.85;100.00
49947;BME280;35839;48.662;13.300;2023-03-15T06:50:40;97196.41;;;2.85;100.00
49947;BME280;35839;48.662;13.300;2023-03-15T06:53:05;97195.53;;;2.98;100.00
49947;BME280;35839;48.662;13.300;2023-03-15T06:55:31;97201.13;;;3.04;100.00
49947;BME280;35839;48.662;13.300;2023-03-15T06:57:57;97200.72;;;3.34;100.00
49947;BME280;35839;48.662;13.300;2023-03-15T07:00:22;97210.09;;;3.48;100.00
49947;BME280;35839;48.662;13.300;2023-03-15T07:02:48;97212.56;;;3.74;100.00
49947;BME280;35839;48.662;13.300;2023-03-15T07:05:14;97217.13;;;3.70;100.00
49947;BME280;35839;48.662;13.300;2023-03-15T07:07:40;97217.94;;;3.47;100.00
49947;BME280;35839;48.662;13.300;2023-03-15T07:10:05;97231.88;;;3.33;100.00
49947;BME280;35839;48.662;13.300;2023-03-15T07:12:31;97229.63;;;3.76;100.00
49947;BME280;35839;48.662;13.300;2023-03-15T07:14:56;97236.91;;;3.71;100.00
49947;BME280;35839;48.662;13.300;2023-03-15T07:17:21;97244.41;;;3.87;100.00
49947;BME280;35839;48.662;13.300;2023-03-15T07:19:47;97248.41;;;3.67;100.00
49947;BME280;35839;48.662;13.300;2023-03-15T07:22:12;97253.38;;;3.70;100.00
49947;BME280;35839;48.662;13.300;2023-03-15T07:24:37;97264.00;;;3.78;100.00
49947;BME280;35839;48.662;13.300;2023-03-15T07:27:03;97273.31;;;3.57;100.00
49947;BME280;35839;48.662;13.300;2023-03-15T07:29:29;97283.81;;;3.43;100.00
49947;BME280;35839;48.662;13.300;2023-03-15T07:31:54;97283.47;;;3.60;100.00
49947;BME280;35839;48.662;13.300;2023-03-15T07:34:20;97286.03;;;3.60;100.00
49947;BME280;35839;48.662;13.300;2023-03-15T07:36:45;97284.72;;;3.78;100.00
49947;BME280;35839;48.662;13.300;2023-03-15T07:39:11;97292.00;;;3.73;100.00
49947;BME280;35839;48.662;13.300;2023-03-15T07:41:36;97299.09;;;4.07;100.00
49947;BME280;35839;48.662;13.300;2023-03-15T07:44:01;97298.56;;;3.90;100.00
49947;BME280;35839;48.662;13.300;2023-03-15T07:46:27;97299.75;;;4.21;100.00
49947;BME280;35839;48.662;13.300;2023-03-15T07:48:52;97298.38;;;4.40;100.00
49947;BME280;35839;48.662;13.300;2023-03-15T07:51:17;97301.47;;;4.10;100.00
49947;BME280;35839;48.662;13.300;2023-03-15T07:53:42;97301.25;;;3.89;100.00
49947;BME280;35839;48.662;13.300;2023-03-15T07:56:08;97311.06;;;4.20;100.00
49947;BME280;35839;48.662;13.300;2023-03-15T07:58:33;97291.22;;;4.43;100.00
49947;BME280;35839;48.662;13.300;2023-03-15T08:00:58;97296.44;;;4.66;100.00
49947;BME280;35839;48.662;13.300;2023-03-15T08:03:24;97296.38;;;4.90;100.00
49947;BME280;35839;48.662;13.300;2023-03-15T08:05:51;97296.81;;;4.26;100.00
49947;BME280;35839;48.662;13.300;2023-03-15T08:08:17;97299.94;;;4.07;100.00
49947;BME280;35839;48.662;13.300;2023-03-15T08:10:43;97302.19;;;4.12;100.00
49947;BME280;35839;48.662;13.300;2023-03-15T08:13:09;97299.03;;;4.66;100.00
49947;BME280;35839;48.662;13.300;2023-03-15T08:15:35;97303.28;;;4.56;100.00
49947;BME280;35839;48.662;13.300;2023-03-15T08:18:00;97296.09;;;4.71;100.00
49947;BME280;35839;48.662;13.300;2023-03-15T08:20:26;97286.94;;;4.89;100.00
49947;BME280;35839;48.662;13.300;2023-03-15T08:22:51;97290.13;;;5.04;100.00
49947;BME280;35839;48.662;13.300;2023-03-15T08:25:20;97304.19;;;5.01;100.00
49947;BME280;35839;48.662;13.300;2023-03-15T08:27:46;97301.28;;;4.59;100.00
49947;BME280;35839;48.662;13.300;2023-03-15T08:30:13;97300.25;;;4.84;100.00
49947;BME280;35839;48.662;13.300;2023-03-15T08:32:39;97286.81;;;5.02;100.00
49947;BME280;35839;48.662;13.300;2023-03-15T08:35:06;97300.63;;;5.02;100.00
49947;BME280;35839;48.662;13.300;2023-03-15T08:37:32;97308.53;;;5.46;100.00
49947;BME280;35839;48.662;13.300;2023-03-15T08:39:57;97299.66;;;4.81;100.00
49947;BME280;35839;48.662;13.300;2023-03-15T08:42:26;97307.66;;;4.67;100.00
49947;BME280;35839;48.662;13.300;2023-03-15T08:44:51;97313.91;;;4.29;100.00
49947;BME280;35839;48.662;13.300;2023-03-15T08:47:16;97315.94;;;4.83;100.00
49947;BME280;35839;48.662;13.300;2023-03-15T08:49:41;97313.81;;;5.44;100.00
49947;BME280;35839;48.662;13.300;2023-03-15T08:52:07;97307.16;;;5.85;100.00
49947;BME280;35839;48.662;13.300;2023-03-15T08:54:32;97310.66;;;5.41;100.00
49947;BME280;35839;48.662;13.300;2023-03-15T08:56:58;97321.63;;;5.11;100.00
49947;BME280;35839;48.662;13.300;2023-03-15T08:59:23;97320.66;;;4.89;100.00
49947;BME280;35839;48.662;13.300;2023-03-15T09:01:48;97327.28;;;5.04;100.00
49947;BME280;35839;48.662;13.300;2023-03-15T09:04:13;97325.78;;;5.90;100.00
49947;BME280;35839;48.662;13.300;2023-03-15T09:06:39;97312.47;;;5.95;100.00
49947;BME280;35839;48.662;13.300;2023-03-15T09:09:04;97332.63;;;6.03;100.00
49947;BME280;35839;48.662;13.300;2023-03-15T09:11:30;97328.19;;;5.71;100.00
49947;BME280;35839;48.662;13.300;2023-03-15T09:13:56;97330.84;;;5.37;100.00
49947;BME280;35839;48.662;13.300;2023-03-15T09:16:21;97333.41;;;5.15;100.00
49947;BME280;35839;48.662;13.300;2023-03-15T09:18:46;97334.09;;;5.73;100.00
49947;BME280;35839;48.662;13.300;2023-03-15T09:21:11;97342.16;;;5.14;100.00
49947;BME280;35839;48.662;13.300;2023-03-15T09:23:37;97333.72;;;5.78;100.00
49947;BME280;35839;48.662;13.300;2023-03-15T09:26:02;97340.72;;;5.10;100.00
49947;BME280;35839;48.662;13.300;2023-03-15T09:28:27;97349.94;;;5.70;100.00
49947;BME280;35839;48.662;13.300;2023-03-15T09:30:53;97348.66;;;5.53;100.00
49947;BME280;35839;48.662;13.300;2023-03-15T09:33:19;97342.78;;;6.06;100.00
49947;BME280;35839;48.662;13.300;2023-03-15T09:35:49;97346.88;;;4.97;100.00
49947;BME280;35839;48.662;13.300;2023-03-15T09:38:14;97351.81;;;5.00;100.00
49947;BME280;35839;48.662;13.300;2023-03-15T09:40:42;97343.31;;;5.66;98.93
49947;BME280;35839;48.662;13.300;2023-03-15T09:43:38;97356.50;;;5.97;98.43
49947;BME280;35839;48.662;13.300;2023-03-15T09:46:24;97363.78;;;5.48;94.05
49947;BME280;35839;48.662;13.300;2023-03-15T09:49:13;97364.28;;;4.84;95.24
49947;BME280;35839;48.662;13.300;2023-03-15T09:51:50;97366.94;;;5.63;96.17
49947;BME280;35839;48.662;13.300;2023-03-15T09:54:40;97367.91;;;6.60;87.34
49947;BME280;35839;48.662;13.300;2023-03-15T09:57:21;97376.66;;;7.32;82.37
49947;BME280;35839;48.662;13.300;2023-03-15T09:59:51;97367.50;;;7.28;83.78
49947;BME280;35839;48.662;13.300;2023-03-15T10:02:24;97366.94;;;7.03;85.66
49947;BME280;35839;48.662;13.300;2023-03-15T10:04:56;97370.28;;;6.52;86.54
49947;BME280;35839;48.662;13.300;2023-03-15T10:07:24;97372.13;;;5.06;87.77
49947;BME280;35839;48.662;13.300;2023-03-15T10:09:50;97380.53;;;5.33;87.33
49947;BME280;35839;48.662;13.300;2023-03-15T10:12:22;97387.38;;;5.67;85.84
49947;BME280;35839;48.662;13.300;2023-03-15T10:20:24;97372.13;;;6.61;78.99
49947;BME280;35839;48.662;13.300;2023-03-15T10:22:56;97369.09;;;6.98;81.17
49947;BME280;35839;48.662;13.300;2023-03-15T10:25:27;97374.69;;;6.72;84.04
49947;BME280;35839;48.662;13.300;2023-03-15T10:28:00;97383.63;;;7.01;79.78
49947;BME280;35839;48.662;13.300;2023-03-15T10:30:29;97381.63;;;7.04;78.04
49947;BME280;35839;48.662;13.300;2023-03-15T10:33:01;97389.47;;;7.14;74.63
49947;BME280;35839;48.662;13.300;2023-03-15T10:35:28;97383.84;;;6.88;76.39
49947;BME280;35839;48.662;13.300;2023-03-15T10:37:53;97395.25;;;6.75;68.74
49947;BME280;35839;48.662;13.300;2023-03-15T10:40:45;97392.84;;;7.26;67.53
49947;BME280;35839;48.662;13.300;2023-03-15T10:46:31;97394.19;;;7.81;70.30
49947;BME280;35839;48.662;13.300;2023-03-15T10:48:59;97394.88;;;6.48;73.43
49947;BME280;35839;48.662;13.300;2023-03-15T10:51:28;97404.94;;;6.20;74.25
49947;BME280;35839;48.662;13.300;2023-03-15T10:54:04;97406.44;;;7.08;74.60
49947;BME280;35839;48.662;13.300;2023-03-15T10:56:34;97401.44;;;7.47;73.51
49947;BME280;35839;48.662;13.300;2023-03-15T10:59:01;97401.84;;;6.80;73.46
49947;BME280;35839;48.662;13.300;2023-03-15T11:01:30;97396.91;;;7.80;71.63
49947;BME280;35839;48.662;13.300;2023-03-15T11:04:12;97403.13;;;8.68;66.36
49947;BME280;35839;48.662;13.300;2023-03-15T11:06:44;97396.59;;;8.14;68.69
49947;BME280;35839;48.662;13.300;2023-03-15T11:09:21;97396.94;;;7.49;66.04
49947;BME280;35839;48.662;13.300;2023-03-15T11:12:04;97405.78;;;7.68;63.69
49947;BME280;35839;48.662;13.300;2023-03-15T11:14:39;97386.31;;;7.72;69.08
49947;BME280;35839;48.662;13.300;2023-03-15T11:17:14;97396.28;;;7.05;62.61
49947;BME280;35839;48.662;13.300;2023-03-15T11:19:41;97397.31;;;7.75;65.38
49947;BME280;35839;48.662;13.300;2023-03-15T11:22:11;97398.84;;;7.47;62.21
49947;BME280;35839;48.662;13.300;2023-03-15T11:24:37;97402.69;;;7.53;63.56
49947;BME280;35839;48.662;13.300;2023-03-15T11:27:10;97407.06;;;7.83;60.75
49947;BME280;35839;48.662;13.300;2023-03-15T11:29:37;97398.91;;;7.97;63.00
49947;BME280;35839;48.662;13.300;2023-03-15T11:32:16;97403.16;;;7.06;59.65
49947;BME280;35839;48.662;13.300;2023-03-15T11:37:21;97408.41;;;6.42;62.33
49947;BME280;35839;48.662;13.300;2023-03-15T11:39:59;97400.22;;;7.51;61.83
49947;BME280;35839;48.662;13.300;2023-03-15T11:42:38;97400.50;;;7.89;63.44
49947;BME280;35839;48.662;13.300;2023-03-15T11:45:15;97394.25;;;7.30;60.76
49947;BME280;35839;48.662;13.300;2023-03-15T11:47:46;97390.66;;;7.62;61.87
49947;BME280;35839;48.662;13.300;2023-03-15T11:50:15;97387.09;;;7.32;61.67
49947;BME280;35839;48.662;13.300;2023-03-15T11:52:40;97384.59;;;7.51;66.77
49947;BME280;35839;48.662;13.300;2023-03-15T11:55:15;97380.09;;;6.81;68.60
49947;BME280;35839;48.662;13.300;2023-03-15T11:57:43;97380.34;;;6.99;66.90
49947;BME280;35839;48.662;13.300;2023-03-15T12:03:22;97376.69;;;6.69;69.88
49947;BME280;35839;48.662;13.300;2023-03-15T12:05:58;97363.69;;;6.69;68.95
49947;BME280;35839;48.662;13.300;2023-03-15T12:16:38;97357.88;;;8.09;64.49
49947;BME280;35839;48.662;13.300;2023-03-15T12:19:16;97353.53;;;7.08;64.39
49947;BME280;35839;48.662;13.300;2023-03-15T12:21:49;97343.50;;;6.40;66.98
49947;BME280;35839;48.662;13.300;2023-03-15T12:24:28;97346.38;;;7.00;64.15
49947;BME280;35839;48.662;13.300;2023-03-15T12:27:15;97347.94;;;7.43;59.94
49947;BME280;35839;48.662;13.300;2023-03-15T12:29:46;97342.38;;;8.27;59.15
49947;BME280;35839;48.662;13.300;2023-03-15T12:32:13;97349.00;;;8.70;60.13
49947;BME280;35839;48.662;13.300;2023-03-15T12:34:46;97352.38;;;7.52;55.36
49947;BME280;35839;48.662;13.300;2023-03-15T12:37:26;97345.88;;;7.87;56.87
49947;BME280;35839;48.662;13.300;2023-03-15T12:39:59;97336.81;;;9.08;56.78
49947;BME280;35839;48.662;13.300;2023-03-15T12:55:58;97331.66;;;10.54;48.27
49947;BME280;35839;48.662;13.300;2023-03-15T12:58:35;97329.81;;;9.46;50.15
49947;BME280;35839;48.662;13.300;2023-03-15T13:01:04;97330.34;;;10.05;49.93
49947;BME280;35839;48.662;13.300;2023-03-15T13:03:33;97311.97;;;10.15;49.42
49947;BME280;35839;48.662;13.300;2023-03-15T13:11:33;97322.56;;;10.67;47.61
49947;BME280;35839;48.662;13.300;2023-03-15T13:19:29;97323.31;;;10.05;49.64
49947;BME280;35839;48.662;13.300;2023-03-15T13:24:50;97337.13;;;9.05;51.23
49947;BME280;35839;48.662;13.300;2023-03-15T13:27:37;97340.75;;;8.55;49.86
49947;BME280;35839;48.662;13.300;2023-03-15T13:35:40;97334.44;;;8.68;48.75
49947;BME280;35839;48.662;13.300;2023-03-15T13:38:39;97338.28;;;8.63;51.21
49947;BME280;35839;48.662;13.300;2023-03-15T13:41:21;97345.13;;;7.56;51.48
49947;BME280;35839;48.662;13.300;2023-03-15T13:43:48;97333.03;;;8.15;53.34
49947;BME280;35839;48.662;13.300;2023-03-15T13:46:17;97346.06;;;8.05;51.24
49947;BME280;35839;48.662;13.300;2023-03-15T13:48:44;97349.25;;;6.97;51.79
49947;BME280;35839;48.662;13.300;2023-03-15T13:51:21;97352.34;;;6.49;52.19
49947;BME280;35839;48.662;13.300;2023-03-15T13:53:49;97355.69;;;6.61;51.21
49947;BME280;35839;48.662;13.300;2023-03-15T13:56:26;97351.84;;;6.55;52.35
49947;BME280;35839;48.662;13.300;2023-03-15T13:58:52;97355.66;;;6.93;55.61
49947;BME280;35839;48.662;13.300;2023-03-15T14:01:18;97355.97;;;7.00;53.55
49947;BME280;35839;48.662;13.300;2023-03-15T14:03:53;97353.59;;;6.54;54.88
49947;BME280;35839;48.662;13.300;2023-03-15T14:06:24;97361.28;;;6.98;55.05
49947;BME280;35839;48.662;13.300;2023-03-15T14:08:59;97353.66;;;7.27;54.37
49947;BME280;35839;48.662;13.300;2023-03-15T14:13:53;97352.63;;;6.67;53.76
49947;BME280;35839;48.662;13.300;2023-03-15T14:21:53;97349.69;;;7.73;53.68
49947;BME280;35839;48.662;13.300;2023-03-15T14:24:25;97342.94;;;8.79;53.58
49947;BME280;35839;48.662;13.300;2023-03-15T14:26:54;97346.56;;;9.25;49.48
49947;BME280;35839;48.662;13.300;2023-03-15T14:29:24;97349.25;;;8.67;50.01
49947;BME280;35839;48.662;13.300;2023-03-15T14:31:51;97332.75;;;8.18;52.43
49947;BME280;35839;48.662;13.300;2023-03-15T14:34:24;97338.41;;;7.53;53.67
49947;BME280;35839;48.662;13.300;2023-03-15T14:36:58;97341.09;;;7.42;55.95
49947;BME280;35839;48.662;13.300;2023-03-15T14:39:40;97340.38;;;7.80;55.41
49947;BME280;35839;48.662;13.300;2023-03-15T14:42:09;97341.88;;;7.02;56.75
49947;BME280;35839;48.662;13.300;2023-03-15T14:44:34;97346.38;;;7.00;55.94
49947;BME280;35839;48.662;13.300;2023-03-15T14:46:59;97346.56;;;6.87;56.05
49947;BME280;35839;48.662;13.300;2023-03-15T14:49:27;97336.03;;;6.68;60.03
49947;BME280;35839;48.662;13.300;2023-03-15T14:51:59;97349.41;;;7.05;58.86
49947;BME280;35839;48.662;13.300;2023-03-15T14:54:26;97354.22;;;7.10;59.31
49947;BME280;35839;48.662;13.300;2023-03-15T14:56:52;97350.59;;;7.22;60.82
49947;BME280;35839;48.662;13.300;2023-03-15T14:59:17;97352.78;;;6.54;65.57
49947;BME280;35839;48.662;13.300;2023-03-15T15:01:47;97366.78;;;5.87;70.16
49947;BME280;35839;48.662;13.300;2023-03-15T15:04:13;97368.91;;;6.04;71.43
49947;BME280;35839;48.662;13.300;2023-03-15T15:06:39;97369.28;;;5.88;73.16
49947;BME280;35839;48.662;13.300;2023-03-15T15:09:20;97388.44;;;5.54;83.40
49947;BME280;35839;48.662;13.300;2023-03-15T15:11:46;97383.00;;;5.23;88.95
49947;BME280;35839;48.662;13.300;2023-03-15T15:14:14;97375.31;;;5.21;96.75
49947;BME280;35839;48.662;13.300;2023-03-15T15:16:40;97377.69;;;5.69;96.20
49947;BME280;35839;48.662;13.300;2023-03-15T15:19:06;97372.63;;;5.45;94.89
49947;BME280;35839;48.662;13.300;2023-03-15T15:21:32;97367.91;;;5.51;95.53
49947;BME280;35839;48.662;13.300;2023-03-15T15:23:57;97361.03;;;5.72;96.77
49947;BME280;35839;48.662;13.300;2023-03-15T15:26:25;97354.13;;;6.05;92.64
49947;BME280;35839;48.662;13.300;2023-03-15T15:28:51;97360.84;;;6.51;91.77
49947;BME280;35839;48.662;13.300;2023-03-15T15:31:22;97350.91;;;6.45;87.45
49947;BME280;35839;48.662;13.300;2023-03-15T15:33:48;97350.44;;;6.51;87.36
49947;BME280;35839;48.662;13.300;2023-03-15T15:36:29;97357.81;;;6.88;88.83
49947;BME280;35839;48.662;13.300;2023-03-15T15:38:56;97356.03;;;6.67;85.94
49947;BME280;35839;48.662;13.300;2023-03-15T15:41:29;97357.34;;;6.62;87.11
49947;BME280;35839;48.662;13.300;2023-03-15T15:43:55;97358.72;;;6.45;84.45
49947;BME280;35839;48.662;13.300;2023-03-15T15:46:21;97357.13;;;6.86;82.46
49947;BME280;35839;48.662;13.300;2023-03-15T15:48:48;97366.22;;;6.27;85.17
49947;BME280;35839;48.662;13.300;2023-03-15T15:51:19;97361.19;;;6.25;84.74
49947;BME280;35839;48.662;13.300;2023-03-15T15:53:47;97372.28;;;6.27;84.29
49947;BME280;35839;48.662;13.300;2023-03-15T15:56:12;97392.75;;;5.87;83.92
49947;BME280;35839;48.662;13.300;2023-03-15T15:58:42;97418.66;;;5.32;90.75
49947;BME280;35839;48.662;13.300;2023-03-15T16:01:17;97423.31;;;4.45;100.00
49947;BME280;35839;48.662;13.300;2023-03-15T16:03:42;97425.00;;;3.85;100.00
49947;BME280;35839;48.662;13.300;2023-03-15T16:06:17;97425.72;;;3.87;100.00
49947;BME280;35839;48.662;13.300;2023-03-15T16:08:43;97429.22;;;3.86;100.00
49947;BME280;35839;48.662;13.300;2023-03-15T16:11:10;97431.41;;;3.79;100.00
49947;BME280;35839;48.662;13.300;2023-03-15T16:13:37;97420.16;;;4.17;100.00
49947;BME280;35839;48.662;13.300;2023-03-15T16:16:02;97421.13;;;4.28;100.00
49947;BME280;35839;48.662;13.300;2023-03-15T16:18:27;97426.06;;;4.07;100.00
49947;BME280;35839;48.662;13.300;2023-03-15T16:20:53;97427.28;;;4.38;100.00
49947;BME280;35839;48.662;13.300;2023-03-15T16:23:21;97432.44;;;4.51;100.00
49947;BME280;35839;48.662;13.300;2023-03-15T16:25:49;97432.44;;;4.27;100.00
49947;BME280;35839;48.662;13.300;2023-03-15T16:28:15;97435.06;;;4.14;100.00
49947;BME280;35839;48.662;13.300;2023-03-15T16:30:41;97431.81;;;4.47;100.00
49947;BME280;35839;48.662;13.300;2023-03-15T16:33:19;97445.50;;;4.49;100.00
49947;BME280;35839;48.662;13.300;2023-03-15T16:35:45;97436.75;;;4.02;100.00
49947;BME280;35839;48.662;13.300;2023-03-15T16:38:15;97446.97;;;4.16;100.00
49947;BME280;35839;48.662;13.300;2023-03-15T16:40:43;97447.34;;;3.99;100.00
49947;BME280;35839;48.662;13.300;2023-03-15T16:43:12;97444.13;;;3.95;100.00
49947;BME280;35839;48.662;13.300;2023-03-15T16:45:38;97451.41;;;4.51;100.00
49947;BME280;35839;48.662;13.300;2023-03-15T16:48:04;97462.75;;;4.50;100.00
49947;BME280;35839;48.662;13.300;2023-03-15T16:50:30;97459.47;;;4.35;100.00
49947;BME280;35839;48.662;13.300;2023-03-15T16:52:58;97461.66;;;3.92;100.00
49947;BME280;35839;48.662;13.300;2023-03-15T16:55:27;97459.34;;;4.00;100.00
49947;BME280;35839;48.662;13.300;2023-03-15T16:57:53;97462.03;;;3.98;100.00
49947;BME280;35839;48.662;13.300;2023-03-15T17:00:19;97466.00;;;4.04;100.00
49947;BME280;35839;48.662;13.300;2023-03-15T17:02:46;97470.47;;;4.26;100.00
49947;BME280;35839;48.662;13.300;2023-03-15T17:05:12;97468.22;;;3.85;100.00
49947;BME280;35839;48.662;13.300;2023-03-15T17:07:43;97475.03;;;3.86;100.00
49947;BME280;35839;48.662;13.300;2023-03-15T17:10:30;97479.09;;;3.90;100.00
49947;BME280;35839;48.662;13.300;2023-03-15T17:12:58;97472.84;;;3.79;100.00
49947;BME280;35839;48.662;13.300;2023-03-15T17:15:27;97481.94;;;4.48;100.00
49947;BME280;35839;48.662;13.300;2023-03-15T17:17:54;97487.47;;;4.30;100.00
49947;BME280;35839;48.662;13.300;2023-03-15T17:20:23;97486.50;;;4.44;100.00
49947;BME280;35839;48.662;13.300;2023-03-15T17:22:55;97492.03;;;3.90;100.00
49947;BME280;35839;48.662;13.300;2023-03-15T17:25:21;97497.00;;;4.06;100.00
49947;BME280;35839;48.662;13.300;2023-03-15T17:27:48;97504.75;;;3.93;100.00
49947;BME280;35839;48.662;13.300;2023-03-15T17:30:23;97506.63;;;3.91;100.00
49947;BME280;35839;48.662;13.300;2023-03-15T17:32:49;97502.94;;;4.32;100.00
49947;BME280;35839;48.662;13.300;2023-03-15T17:35:15;97519.84;;;4.25;100.00
49947;BME280;35839;48.662;13.300;2023-03-15T17:37:42;97512.59;;;4.17;100.00
49947;BME280;35839;48.662;13.300;2023-03-15T17:40:25;97521.72;;;4.10;100.00
49947;BME280;35839;48.662;13.300;2023-03-15T17:42:51;97516.09;;;4.29;100.00
49947;BME280;35839;48.662;13.300;2023-03-15T17:45:20;97519.47;;;4.42;100.00
49947;BME280;35839;48.662;13.300;2023-03-15T17:47:49;97524.25;;;3.86;100.00
49947;BME280;35839;48.662;13.300;2023-03-15T17:50:16;97523.91;;;4.03;100.00
49947;BME280;35839;48.662;13.300;2023-03-15T17:52:42;97533.97;;;4.20;100.00
49947;BME280;35839;48.662;13.300;2023-03-15T17:55:14;97528.56;;;4.23;100.00
49947;BME280;35839;48.662;13.300;2023-03-15T17:57:39;97529.63;;;4.08;100.00
49947;BME280;35839;48.662;13.300;2023-03-15T18:00:05;97528.00;;;4.68;100.00
49947;BME280;35839;48.662;13.300;2023-03-15T18:02:31;97529.31;;;4.50;100.00
49947;BME280;35839;48.662;13.300;2023-03-15T18:04:56;97534.50;;;4.50;100.00
49947;BME280;35839;48.662;13.300;2023-03-15T18:07:22;97543.16;;;4.61;100.00
49947;BME280;35839;48.662;13.300;2023-03-15T18:09:48;97542.50;;;4.71;100.00
49947;BME280;35839;48.662;13.300;2023-03-15T18:12:14;97551.47;;;4.30;100.00
49947;BME280;35839;48.662;13.300;2023-03-15T18:14:39;97553.88;;;4.20;100.00
49947;BME280;35839;48.662;13.300;2023-03-15T18:17:04;97561.28;;;4.37;100.00
49947;BME280;35839;48.662;13.300;2023-03-15T18:19:30;97562.13;;;4.38;100.00
49947;BME280;35839;48.662;13.300;2023-03-15T18:21:55;97564.78;;;4.49;100.00
49947;BME280;35839;48.662;13.300;2023-03-15T18:24:20;97568.34;;;4.48;100.00
49947;BME280;35839;48.662;13.300;2023-03-15T18:26:46;97568.94;;;4.52;100.00
49947;BME280;35839;48.662;13.300;2023-03-15T18:29:12;97572.81;;;4.70;100.00
49947;BME280;35839;48.662;13.300;2023-03-15T18:31:37;97576.53;;;4.42;100.00
49947;BME280;35839;48.662;13.300;2023-03-15T18:34:02;97572.81;;;4.70;100.00
49947;BME280;35839;48.662;13.300;2023-03-15T18:36:28;97574.59;;;4.70;100.00
49947;BME280;35839;48.662;13.300;2023-03-15T18:38:53;97570.19;;;5.07;100.00
49947;BME280;35839;48.662;13.300;2023-03-15T18:41:22;97583.91;;;4.85;100.00
49947;BME280;35839;48.662;13.300;2023-03-15T18:43:51;97568.81;;;4.90;100.00
49947;BME280;35839;48.662;13.300;2023-03-15T18:46:21;97574.44;;;4.84;100.00
49947;BME280;35839;48.662;13.300;2023-03-15T18:48:47;97580.41;;;4.97;100.00
49947;BME280;35839;48.662;13.300;2023-03-15T18:51:15;97584.28;;;4.55;100.00
49947;BME280;35839;48.662;13.300;2023-03-15T18:53:42;97580.41;;;4.73;100.00
49947;BME280;35839;48.662;13.300;2023-03-15T18:56:16;97583.28;;;4.32;100.00
49947;BME280;35839;48.662;13.300;2023-03-15T18:58:47;97574.34;;;4.36;100.00
49947;BME280;35839;48.662;13.300;2023-03-15T19:01:15;97587.88;;;4.03;100.00
49947;BME280;35839;48.662;13.300;2023-03-15T19:03:40;97578.75;;;4.10;100.00
49947;BME280;35839;48.662;13.300;2023-03-15T19:06:07;97586.16;;;4.53;100.00
49947;BME280;35839;48.662;13.300;2023-03-15T19:08:33;97581.22;;;3.98;100.00
49947;BME280;35839;48.662;13.300;2023-03-15T19:11:00;97584.34;;;3.91;100.00
49947;BME280;35839;48.662;13.300;2023-03-15T19:13:26;97582.91;;;3.99;100.00
49947;BME280;35839;48.662;13.300;2023-03-15T19:15:52;97587.88;;;4.15;100.00
49947;BME280;35839;48.662;13.300;2023-03-15T19:18:20;97585.59;;;3.98;100.00
49947;BME280;35839;48.662;13.300;2023-03-15T19:20:46;97586.81;;;4.05;100.00
49947;BME280;35839;48.662;13.300;2023-03-15T19:23:11;97581.34;;;4.10;100.00
49947;BME280;35839;48.662;13.300;2023-03-15T19:25:37;97594.41;;;4.08;100.00
49947;BME280;35839;48.662;13.300;2023-03-15T19:28:02;97596.16;;;4.08;100.00
49947;BME280;35839;48.662;13.300;2023-03-15T19:30:28;97592.63;;;3.96;100.00
49947;BME280;35839;48.662;13.300;2023-03-15T19:32:53;97591.59;;;4.11;100.00
49947;BME280;35839;48.662;13.300;2023-03-15T19:35:19;97600.84;;;4.15;100.00
49947;BME280;35839;48.662;13.300;2023-03-15T19:37:46;97608.69;;;3.88;100.00
49947;BME280;35839;48.662;13.300;2023-03-15T19:40:12;97605.59;;;3.96;100.00
49947;BME280;35839;48.662;13.300;2023-03-15T19:42:39;97605.91;;;4.04;100.00